sensor_id;sensor_type;location;lat;lon;timestamp;pressure;altitude;pressure_sealevel;temperature;humidity
9672;BME280;4874;43.568;27.824;2023-02-17T00:00:28;99670.84;;;5.35;100.00
9672;BME280;4874;43.568;27.824;2023-02-17T00:02:55;99669.97;;;5.35;100.00
9672;BME280;4874;43.568;27.824;2023-02-17T00:05:23;99673.22;;;5.40;100.00
9672;BME280;4874;43.568;27.824;2023-02-17T00:07:49;99673.09;;;5.27;100.00
9672;BME280;4874;43.568;27.824;2023-02-17T00:10:16;99670.38;;;5.29;100.00
9672;BME280;4874;43.568;27.824;2023-02-17T00:12:43;99661.34;;;5.33;100.00
9672;BME280;4874;43.568;27.824;2023-02-17T00:15:09;99670.56;;;5.40;100.00
9672;BME280;4874;43.568;27.824;2023-02-17T00:17:36;99648.47;;;5.28;100.00
9672;BME280;4874;43.568;27.824;2023-02-17T00:20:03;99660.03;;;5.26;100.00
9672;BME280;4874;43.568;27.824;2023-02-17T00:22:30;99652.91;;;5.14;100.00
9672;BME280;4874;43.568;27.824;2023-02-17T00:24:56;99646.22;;;5.08;100.00
9672;BME280;4874;43.568;27.824;2023-02-17T00:27:23;99646.97;;;5.24;100.00
9672;BME280;4874;43.568;27.824;2023-02-17T00:29:49;99645.00;;;5.14;100.00
9672;BME280;4874;43.568;27.824;2023-02-17T00:32:16;99635.78;;;5.07;100.00
9672;BME280;4874;43.568;27.824;2023-02-17T00:34:42;99636.22;;;4.85;100.00
9672;BME280;4874;43.568;27.824;2023-02-17T00:37:09;99631.84;;;5.00;100.00
9672;BME280;4874;43.568;27.824;2023-02-17T00:39:35;99634.16;;;4.76;100.00
9672;BME280;4874;43.568;27.824;2023-02-17T00:42:02;99636.34;;;4.98;100.00
9672;BME280;4874;43.568;27.824;2023-02-17T00:44:29;99630.72;;;5.04;100.00
9672;BME280;4874;43.568;27.824;2023-02-17T00:46:55;99634.84;;;5.08;100.00
9672;BME280;4874;43.568;27.824;2023-02-17T00:49:23;99633.34;;;5.04;100.00
9672;BME280;4874;43.568;27.824;2023-02-17T00:51:50;99632.94;;;4.96;100.00
9672;BME280;4874;43.568;27.824;2023-02-17T00:54:17;99637.75;;;5.03;100.00
9672;BME280;4874;43.568;27.824;2023-02-17T00:56:44;99627.44;;;5.14;100.00
9672;BME280;4874;43.568;27.824;2023-02-17T00:59:11;99624.59;;;5.17;100.00
9672;BME280;4874;43.568;27.824;2023-02-17T01:01:37;99627.31;;;5.30;100.00
9672;BME280;4874;43.568;27.824;2023-02-17T01:04:05;99623.66;;;5.32;100.00
9672;BME280;4874;43.568;27.824;2023-02-17T01:06:32;99621.31;;;5.28;100.00
9672;BME280;4874;43.568;27.824;2023-02-17T01:08:59;99610.03;;;5.26;100.00
9672;BME280;4874;43.568;27.824;2023-02-17T01:11:28;99610.69;;;5.29;100.00
9672;BME280;4874;43.568;27.824;2023-02-17T01:13:55;99606.91;;;5.33;100.00
9672;BME280;4874;43.568;27.824;2023-02-17T01:16:44;99605.97;;;5.48;100.00
9672;BME280;4874;43.568;27.824;2023-02-17T01:19:11;99600.50;;;5.51;100.00
9672;BME280;4874;43.568;27.824;2023-02-17T01:21:38;99598.78;;;5.50;100.00
9672;BME280;4874;43.568;27.824;2023-02-17T01:24:06;99602.84;;;5.42;100.00
9672;BME280;4874;43.568;27.824;2023-02-17T01:26:33;99596.16;;;5.50;100.00
9672;BME280;4874;43.568;27.824;2023-02-17T01:29:00;99590.31;;;5.59;100.00
9672;BME280;4874;43.568;27.824;2023-02-17T01:31:27;99590.84;;;5.64;100.00
9672;BME280;4874;43.568;27.824;2023-02-17T01:33:57;99583.09;;;5.49;100.00
9672;BME280;4874;43.568;27.824;2023-02-17T01:36:24;99590.44;;;5.44;100.00
9672;BME280;4874;43.568;27.824;2023-02-17T01:38:51;99588.66;;;5.44;100.00
9672;BME280;4874;43.568;27.824;2023-02-17T01:41:19;99582.09;;;5.37;100.00
9672;BME280;4874;43.568;27.824;2023-02-17T01:46:34;99583.69;;;5.40;100.00
9672;BME280;4874;43.568;27.824;2023-02-17T01:49:02;99589.50;;;5.45;100.00
9672;BME280;4874;43.568;27.824;2023-02-17T01:51:30;99586.22;;;5.41;100.00
9672;BME280;4874;43.568;27.824;2023-02-17T01:54:07;99580.97;;;5.27;100.00
9672;BME280;4874;43.568;27.824;2023-02-17T01:56:34;99571.25;;;5.42;100.00
9672;BME280;4874;43.568;27.824;2023-02-17T01:59:07;99577.81;;;5.49;100.00
9672;BME280;4874;43.568;27.824;2023-02-17T02:01:36;99584.25;;;5.45;100.00
9672;BME280;4874;43.568;27.824;2023-02-17T02:04:04;99568.47;;;5.31;100.00
9672;BME280;4874;43.568;27.824;2023-02-17T02:06:32;99573.16;;;5.40;100.00
9672;BME280;4874;43.568;27.824;2023-02-17T02:09:03;99574.00;;;5.40;100.00
9672;BME280;4874;43.568;27.824;2023-02-17T02:11:30;99562.34;;;5.30;100.00
9672;BME280;4874;43.568;27.824;2023-02-17T02:13:57;99563.88;;;5.34;100.00
9672;BME280;4874;43.568;27.824;2023-02-17T02:18:57;99563.69;;;5.23;100.00
9672;BME280;4874;43.568;27.824;2023-02-17T02:34:33;99549.63;;;5.10;100.00
9672;BME280;4874;43.568;27.824;2023-02-17T02:37:12;99545.78;;;5.02;100.00
9672;BME280;4874;43.568;27.824;2023-02-17T02:39:41;99545.38;;;5.08;100.00
9672;BME280;4874;43.568;27.824;2023-02-17T02:42:10;99541.84;;;5.35;100.00
9672;BME280;4874;43.568;27.824;2023-02-17T02:44:38;99553.38;;;5.47;100.00
9672;BME280;4874;43.568;27.824;2023-02-17T02:47:29;99547.72;;;5.53;100.00
9672;BME280;4874;43.568;27.824;2023-02-17T02:49:51;99546.13;;;5.50;100.00
9672;BME280;4874;43.568;27.824;2023-02-17T02:52:20;99546.50;;;5.58;100.00
9672;BME280;4874;43.568;27.824;2023-02-17T02:58:02;99554.03;;;5.91;100.00
9672;BME280;4874;43.568;27.824;2023-02-17T03:03:05;99544.16;;;5.80;100.00
9672;BME280;4874;43.568;27.824;2023-02-17T03:05:40;99548.53;;;5.94;100.00
9672;BME280;4874;43.568;27.824;2023-02-17T03:08:13;99543.81;;;5.99;100.00
9672;BME280;4874;43.568;27.824;2023-02-17T03:10:50;99542.31;;;5.95;100.00
9672;BME280;4874;43.568;27.824;2023-02-17T03:13:18;99542.31;;;5.95;100.00
9672;BME280;4874;43.568;27.824;2023-02-17T03:15:46;99546.31;;;5.88;100.00
9672;BME280;4874;43.568;27.824;2023-02-17T03:18:12;99541.28;;;5.97;100.00
9672;BME280;4874;43.568;27.824;2023-02-17T03:20:44;99540.75;;;5.92;100.00
9672;BME280;4874;43.568;27.824;2023-02-17T03:23:13;99545.59;;;5.98;100.00
9672;BME280;4874;43.568;27.824;2023-02-17T03:25:40;99536.06;;;5.83;100.00
9672;BME280;4874;43.568;27.824;2023-02-17T03:28:06;99532.06;;;5.64;100.00
9672;BME280;4874;43.568;27.824;2023-02-17T03:30:33;99543.19;;;5.69;100.00
9672;BME280;4874;43.568;27.824;2023-02-17T03:33:00;99540.88;;;5.77;100.00
9672;BME280;4874;43.568;27.824;2023-02-17T03:35:26;99538.25;;;5.77;100.00
9672;BME280;4874;43.568;27.824;2023-02-17T03:37:53;99539.28;;;5.48;100.00
9672;BME280;4874;43.568;27.824;2023-02-17T03:40:19;99543.13;;;5.56;100.00
9672;BME280;4874;43.568;27.824;2023-02-17T03:42:46;99545.66;;;5.58;100.00
9672;BME280;4874;43.568;27.824;2023-02-17T03:45:13;99538.50;;;5.60;100.00
9672;BME280;4874;43.568;27.824;2023-02-17T03:47:39;99547.63;;;5.54;100.00
9672;BME280;4874;43.568;27.824;2023-02-17T03:50:06;99539.72;;;5.54;100.00
9672;BME280;4874;43.568;27.824;2023-02-17T03:52:33;99535.53;;;5.52;100.00
9672;BME280;4874;43.568;27.824;2023-02-17T03:54:59;99538.13;;;5.25;100.00
9672;BME280;4874;43.568;27.824;2023-02-17T03:57:26;99536.09;;;5.43;100.00
9672;BME280;4874;43.568;27.824;2023-02-17T03:59:53;99537.53;;;5.61;100.00
9672;BME280;4874;43.568;27.824;2023-02-17T04:02:19;99548.47;;;5.55;100.00
9672;BME280;4874;43.568;27.824;2023-02-17T04:04:46;99538.50;;;5.60;100.00
9672;BME280;4874;43.568;27.824;2023-02-17T04:07:12;99537.63;;;5.59;100.00
9672;BME280;4874;43.568;27.824;2023-02-17T04:09:39;99539.84;;;5.53;100.00
9672;BME280;4874;43.568;27.824;2023-02-17T04:12:05;99539.03;;;5.65;100.00
9672;BME280;4874;43.568;27.824;2023-02-17T04:14:32;99542.81;;;5.34;100.00
9672;BME280;4874;43.568;27.824;2023-02-17T04:16:58;99549.63;;;5.51;100.00
9672;BME280;4874;43.568;27.824;2023-02-17T04:19:25;99546.53;;;5.44;100.00
9672;BME280;4874;43.568;27.824;2023-02-17T04:21:51;99547.41;;;5.31;100.00
9672;BME280;4874;43.568;27.824;2023-02-17T04:24:18;99553.09;;;5.11;100.00
9672;BME280;4874;43.568;27.824;2023-02-17T04:26:45;99557.88;;;5.18;100.00
9672;BME280;4874;43.568;27.824;2023-02-17T04:29:11;99552.16;;;5.12;100.00
9672;BME280;4874;43.568;27.824;2023-02-17T04:31:38;99553.66;;;4.88;100.00
9672;BME280;4874;43.568;27.824;2023-02-17T04:34:04;99568.78;;;4.84;100.00
9672;BME280;4874;43.568;27.824;2023-02-17T04:36:31;99561.91;;;4.96;100.00
9672;BME280;4874;43.568;27.824;2023-02-17T04:38:58;99571.31;;;5.00;100.00
9672;BME280;4874;43.568;27.824;2023-02-17T04:41:24;99569.44;;;5.02;100.00
9672;BME280;4874;43.568;27.824;2023-02-17T04:43:51;99561.47;;;4.89;100.00
9672;BME280;4874;43.568;27.824;2023-02-17T04:46:17;99561.34;;;4.76;100.00
9672;BME280;4874;43.568;27.824;2023-02-17T04:48:44;99564.38;;;4.85;100.00
9672;BME280;4874;43.568;27.824;2023-02-17T04:51:10;99557.72;;;4.93;100.00
9672;BME280;4874;43.568;27.824;2023-02-17T04:53:37;99557.59;;;4.80;100.00
9672;BME280;4874;43.568;27.824;2023-02-17T04:56:04;99569.34;;;4.89;100.00
9672;BME280;4874;43.568;27.824;2023-02-17T04:58:31;99570.97;;;4.92;100.00
9672;BME280;4874;43.568;27.824;2023-02-17T05:00:58;99573.75;;;5.03;100.00
9672;BME280;4874;43.568;27.824;2023-02-17T05:03:25;99573.28;;;5.10;100.00
9672;BME280;4874;43.568;27.824;2023-02-17T05:05:52;99575.81;;;5.26;100.00
9672;BME280;4874;43.568;27.824;2023-02-17T05:08:19;99570.38;;;5.01;100.00
9672;BME280;4874;43.568;27.824;2023-02-17T05:10:45;99569.06;;;5.08;100.00
9672;BME280;4874;43.568;27.824;2023-02-17T05:13:12;99575.72;;;4.99;100.00
9672;BME280;4874;43.568;27.824;2023-02-17T05:15:38;99571.31;;;5.14;100.00
9672;BME280;4874;43.568;27.824;2023-02-17T05:18:05;99575.06;;;5.24;100.00
9672;BME280;4874;43.568;27.824;2023-02-17T05:20:31;99574.59;;;5.31;100.00
9672;BME280;4874;43.568;27.824;2023-02-17T05:22:58;99584.47;;;5.28;100.00
9672;BME280;4874;43.568;27.824;2023-02-17T05:25:24;99581.09;;;5.26;100.00
9672;BME280;4874;43.568;27.824;2023-02-17T05:27:51;99587.56;;;4.92;100.00
9672;BME280;4874;43.568;27.824;2023-02-17T05:30:17;99588.41;;;4.78;100.00
9672;BME280;4874;43.568;27.824;2023-02-17T05:32:44;99593.38;;;5.25;100.00
9672;BME280;4874;43.568;27.824;2023-02-17T05:35:11;99597.59;;;5.42;100.00
9672;BME280;4874;43.568;27.824;2023-02-17T05:37:37;99591.50;;;5.41;100.00
9672;BME280;4874;43.568;27.824;2023-02-17T05:40:05;99593.63;;;5.49;100.00
9672;BME280;4874;43.568;27.824;2023-02-17T05:42:31;99598.50;;;5.55;100.00
9672;BME280;4874;43.568;27.824;2023-02-17T05:44:58;99597.50;;;5.43;100.00
9672;BME280;4874;43.568;27.824;2023-02-17T05:47:25;99604.56;;;5.43;100.00
9672;BME280;4874;43.568;27.824;2023-02-17T05:49:52;99604.06;;;5.50;100.00
9672;BME280;4874;43.568;27.824;2023-02-17T05:52:19;99603.91;;;5.39;100.00
9672;BME280;4874;43.568;27.824;2023-02-17T05:54:46;99605.31;;;5.45;100.00
9672;BME280;4874;43.568;27.824;2023-02-17T05:57:12;99604.56;;;5.69;100.00
9672;BME280;4874;43.568;27.824;2023-02-17T05:59:39;99605.25;;;5.59;100.00
9672;BME280;4874;43.568;27.824;2023-02-17T06:02:05;99601.59;;;5.61;100.00
9672;BME280;4874;43.568;27.824;2023-02-17T06:04:32;99612.00;;;5.77;100.00
9672;BME280;4874;43.568;27.824;2023-02-17T06:06:58;99599.22;;;6.12;100.00
9672;BME280;4874;43.568;27.824;2023-02-17T06:09:25;99599.44;;;6.21;100.00
9672;BME280;4874;43.568;27.824;2023-02-17T06:11:51;99600.50;;;7.80;100.00
9672;BME280;4874;43.568;27.824;2023-02-17T06:14:18;99591.06;;;6.66;100.00
9672;BME280;4874;43.568;27.824;2023-02-17T06:16:45;99593.56;;;6.30;100.00
9672;BME280;4874;43.568;27.824;2023-02-17T06:19:11;99595.00;;;6.34;100.00
9672;BME280;4874;43.568;27.824;2023-02-17T06:21:38;99599.03;;;6.40;100.00
9672;BME280;4874;43.568;27.824;2023-02-17T06:24:05;99600.34;;;6.59;100.00
9672;BME280;4874;43.568;27.824;2023-02-17T06:26:31;99608.50;;;6.94;100.00
9672;BME280;4874;43.568;27.824;2023-02-17T06:28:58;99611.31;;;7.03;100.00
9672;BME280;4874;43.568;27.824;2023-02-17T06:31:24;99605.53;;;7.11;100.00
9672;BME280;4874;43.568;27.824;2023-02-17T06:33:51;99596.63;;;7.25;100.00
9672;BME280;4874;43.568;27.824;2023-02-17T06:36:18;99606.25;;;7.62;100.00
9672;BME280;4874;43.568;27.824;2023-02-17T06:38:44;99607.94;;;7.63;100.00
9672;BME280;4874;43.568;27.824;2023-02-17T06:41:11;99599.13;;;7.75;100.00
9672;BME280;4874;43.568;27.824;2023-02-17T06:43:37;99606.16;;;7.63;100.00
9672;BME280;4874;43.568;27.824;2023-02-17T06:46:04;99607.41;;;7.94;100.00
9672;BME280;4874;43.568;27.824;2023-02-17T06:48:31;99598.69;;;7.81;100.00
9672;BME280;4874;43.568;27.824;2023-02-17T06:50:58;99598.56;;;8.06;100.00
9672;BME280;4874;43.568;27.824;2023-02-17T06:53:25;99598.19;;;7.99;100.00
9672;BME280;4874;43.568;27.824;2023-02-17T06:55:52;99601.84;;;8.33;100.00
9672;BME280;4874;43.568;27.824;2023-02-17T06:58:18;99603.00;;;8.53;100.00
9672;BME280;4874;43.568;27.824;2023-02-17T07:00:45;99598.63;;;8.75;100.00
9672;BME280;4874;43.568;27.824;2023-02-17T07:03:12;99608.41;;;9.30;100.00
9672;BME280;4874;43.568;27.824;2023-02-17T07:05:38;99611.28;;;9.16;100.00
9672;BME280;4874;43.568;27.824;2023-02-17T07:08:05;99613.69;;;9.41;100.00
9672;BME280;4874;43.568;27.824;2023-02-17T07:10:32;99604.28;;;9.48;100.00
9672;BME280;4874;43.568;27.824;2023-02-17T07:12:58;99607.56;;;8.96;100.00
9672;BME280;4874;43.568;27.824;2023-02-17T07:15:25;99609.34;;;9.07;100.00
9672;BME280;4874;43.568;27.824;2023-02-17T07:17:51;99598.28;;;9.24;100.00
9672;BME280;4874;43.568;27.824;2023-02-17T07:20:18;99605.38;;;9.34;100.00
9672;BME280;4874;43.568;27.824;2023-02-17T07:22:45;99613.22;;;9.25;100.00
9672;BME280;4874;43.568;27.824;2023-02-17T07:25:12;99606.59;;;8.97;100.00
9672;BME280;4874;43.568;27.824;2023-02-17T07:27:40;99610.06;;;8.87;100.00
9672;BME280;4874;43.568;27.824;2023-02-17T07:30:07;99612.16;;;9.16;100.00
9672;BME280;4874;43.568;27.824;2023-02-17T07:32:33;99617.69;;;9.35;100.00
9672;BME280;4874;43.568;27.824;2023-02-17T07:35:00;99613.91;;;9.60;100.00
9672;BME280;4874;43.568;27.824;2023-02-17T07:37:27;99614.06;;;9.14;100.00
9672;BME280;4874;43.568;27.824;2023-02-17T07:39:54;99625.38;;;9.16;100.00
9672;BME280;4874;43.568;27.824;2023-02-17T07:42:22;99619.97;;;9.18;100.00
9672;BME280;4874;43.568;27.824;2023-02-17T07:44:49;99622.25;;;9.11;100.00
9672;BME280;4874;43.568;27.824;2023-02-17T07:47:16;99626.91;;;8.97;100.00
9672;BME280;4874;43.568;27.824;2023-02-17T07:49:42;99630.88;;;8.91;100.00
9672;BME280;4874;43.568;27.824;2023-02-17T07:52:09;99628.63;;;8.98;100.00
9672;BME280;4874;43.568;27.824;2023-02-17T07:54:35;99646.00;;;9.35;100.00
9672;BME280;4874;43.568;27.824;2023-02-17T07:57:02;99645.75;;;9.27;100.00
9672;BME280;4874;43.568;27.824;2023-02-17T07:59:28;99646.47;;;9.40;100.00
9672;BME280;4874;43.568;27.824;2023-02-17T08:01:55;99635.97;;;9.27;100.00
9672;BME280;4874;43.568;27.824;2023-02-17T08:04:22;99624.16;;;8.87;100.00
9672;BME280;4874;43.568;27.824;2023-02-17T08:06:48;99646.03;;;8.78;100.00
9672;BME280;4874;43.568;27.824;2023-02-17T08:09:15;99633.47;;;9.15;100.00
9672;BME280;4874;43.568;27.824;2023-02-17T08:12:00;99646.09;;;9.33;100.00
9672;BME280;4874;43.568;27.824;2023-02-17T08:14:45;99641.03;;;9.41;100.00
9672;BME280;4874;43.568;27.824;2023-02-17T08:17:11;99635.75;;;9.08;100.00
9672;BME280;4874;43.568;27.824;2023-02-17T08:19:38;99644.28;;;9.23;100.00
9672;BME280;4874;43.568;27.824;2023-02-17T08:22:14;99649.34;;;9.26;100.00
9672;BME280;4874;43.568;27.824;2023-02-17T08:24:41;99646.69;;;9.15;100.00
9672;BME280;4874;43.568;27.824;2023-02-17T08:27:07;99655.50;;;9.60;100.00
9672;BME280;4874;43.568;27.824;2023-02-17T08:29:34;99652.84;;;9.48;100.00
9672;BME280;4874;43.568;27.824;2023-02-17T08:32:01;99655.47;;;9.82;100.00
9672;BME280;4874;43.568;27.824;2023-02-17T08:34:29;99646.06;;;9.78;100.00
9672;BME280;4874;43.568;27.824;2023-02-17T08:36:59;99645.00;;;9.36;100.00
9672;BME280;4874;43.568;27.824;2023-02-17T08:39:26;99646.81;;;9.46;100.00
9672;BME280;4874;43.568;27.824;2023-02-17T08:41:52;99649.81;;;9.53;100.00
9672;BME280;4874;43.568;27.824;2023-02-17T08:44:19;99644.41;;;9.66;100.00
9672;BME280;4874;43.568;27.824;2023-02-17T08:46:48;99647.78;;;9.57;100.00
9672;BME280;4874;43.568;27.824;2023-02-17T08:49:16;99642.25;;;9.48;100.00
9672;BME280;4874;43.568;27.824;2023-02-17T09:32:12;99658.09;;;10.57;100.00
9672;BME280;4874;43.568;27.824;2023-02-17T09:34:39;99655.75;;;10.85;100.00
9672;BME280;4874;43.568;27.824;2023-02-17T09:37:10;99650.28;;;11.27;100.00
9672;BME280;4874;43.568;27.824;2023-02-17T09:39:37;99637.75;;;10.88;100.00
9672;BME280;4874;43.568;27.824;2023-02-17T09:42:04;99646.38;;;10.81;100.00
9672;BME280;4874;43.568;27.824;2023-02-17T09:44:39;99640.50;;;10.45;100.00
9672;BME280;4874;43.568;27.824;2023-02-17T09:47:23;99634.09;;;10.68;100.00
9672;BME280;4874;43.568;27.824;2023-02-17T09:50:04;99639.97;;;10.83;100.00
9672;BME280;4874;43.568;27.824;2023-02-17T09:55:15;99637.34;;;11.43;100.00
9672;BME280;4874;43.568;27.824;2023-02-17T09:58:17;99642.72;;;11.53;100.00
9672;BME280;4874;43.568;27.824;2023-02-17T10:00:51;99626.00;;;11.11;100.00
9672;BME280;4874;43.568;27.824;2023-02-17T10:09:00;99629.38;;;10.93;100.00
9672;BME280;4874;43.568;27.824;2023-02-17T10:11:32;99621.81;;;10.88;100.00
9672;BME280;4874;43.568;27.824;2023-02-17T10:14:03;99624.72;;;11.36;100.00
9672;BME280;4874;43.568;27.824;2023-02-17T10:16:35;99623.00;;;10.75;100.00
9672;BME280;4874;43.568;27.824;2023-02-17T10:19:12;99617.88;;;11.13;100.00
9672;BME280;4874;43.568;27.824;2023-02-17T10:21:50;99607.13;;;11.14;100.00
9672;BME280;4874;43.568;27.824;2023-02-17T10:24:23;99601.78;;;11.05;100.00
9672;BME280;4874;43.568;27.824;2023-02-17T10:27:23;99604.06;;;11.79;100.00
9672;BME280;4874;43.568;27.824;2023-02-17T10:32:50;99595.28;;;11.98;100.00
9672;BME280;4874;43.568;27.824;2023-02-17T10:35:51;99606.41;;;11.72;100.00
9672;BME280;4874;43.568;27.824;2023-02-17T10:39:05;99601.97;;;11.92;100.00
9672;BME280;4874;43.568;27.824;2023-02-17T10:41:14;99593.06;;;11.63;100.00
9672;BME280;4874;43.568;27.824;2023-02-17T10:43:43;99607.59;;;11.99;100.00
9672;BME280;4874;43.568;27.824;2023-02-17T10:46:12;99607.75;;;12.16;100.00
9672;BME280;4874;43.568;27.824;2023-02-17T10:48:49;99612.81;;;12.10;100.00
9672;BME280;4874;43.568;27.824;2023-02-17T10:51:21;99604.81;;;12.10;100.00
9672;BME280;4874;43.568;27.824;2023-02-17T10:54:10;99603.56;;;12.33;100.00
9672;BME280;4874;43.568;27.824;2023-02-17T10:56:45;99586.91;;;12.40;100.00
9672;BME280;4874;43.568;27.824;2023-02-17T10:59:21;99589.97;;;12.64;100.00
9672;BME280;4874;43.568;27.824;2023-02-17T11:01:50;99578.28;;;13.04;100.00
9672;BME280;4874;43.568;27.824;2023-02-17T11:04:17;99574.66;;;12.85;100.00
9672;BME280;4874;43.568;27.824;2023-02-17T11:06:49;99592.16;;;13.07;100.00
9672;BME280;4874;43.568;27.824;2023-02-17T11:09:27;99590.44;;;13.52;99.88
9672;BME280;4874;43.568;27.824;2023-02-17T11:12:10;99587.31;;;13.84;95.66
9672;BME280;4874;43.568;27.824;2023-02-17T11:14:43;99581.25;;;13.64;96.19
9672;BME280;4874;43.568;27.824;2023-02-17T11:17:29;99570.97;;;13.06;99.15
9672;BME280;4874;43.568;27.824;2023-02-17T11:22:35;99584.59;;;13.39;94.36
9672;BME280;4874;43.568;27.824;2023-02-17T11:25:29;99573.81;;;13.31;93.92
9672;BME280;4874;43.568;27.824;2023-02-17T11:27:54;99571.94;;;13.41;91.93
9672;BME280;4874;43.568;27.824;2023-02-17T11:30:23;99565.44;;;13.98;89.70
9672;BME280;4874;43.568;27.824;2023-02-17T11:32:50;99578.63;;;13.55;91.46
9672;BME280;4874;43.568;27.824;2023-02-17T11:35:24;99566.28;;;13.54;94.98
9672;BME280;4874;43.568;27.824;2023-02-17T11:38:00;99534.72;;;14.11;92.12
9672;BME280;4874;43.568;27.824;2023-02-17T11:40:29;99580.91;;;13.50;91.26
9672;BME280;4874;43.568;27.824;2023-02-17T11:42:59;99564.63;;;13.16;92.14
9672;BME280;4874;43.568;27.824;2023-02-17T11:45:49;99566.56;;;13.51;96.01
9672;BME280;4874;43.568;27.824;2023-02-17T11:53:58;99562.16;;;13.86;92.79
9672;BME280;4874;43.568;27.824;2023-02-17T11:56:34;99545.09;;;13.52;93.81
9672;BME280;4874;43.568;27.824;2023-02-17T11:59:34;99555.47;;;13.55;93.44
9672;BME280;4874;43.568;27.824;2023-02-17T12:02:22;99549.75;;;13.95;93.39
9672;BME280;4874;43.568;27.824;2023-02-17T12:05:06;99543.09;;;13.99;91.58
9672;BME280;4874;43.568;27.824;2023-02-17T12:13:31;99544.94;;;14.51;87.49
9672;BME280;4874;43.568;27.824;2023-02-17T12:16:13;99536.84;;;14.08;86.74
9672;BME280;4874;43.568;27.824;2023-02-17T12:24:11;99541.34;;;14.07;85.89
9672;BME280;4874;43.568;27.824;2023-02-17T12:26:51;99549.34;;;14.07;85.93
9672;BME280;4874;43.568;27.824;2023-02-17T12:29:42;99545.22;;;13.95;87.33
9672;BME280;4874;43.568;27.824;2023-02-17T12:35:02;99544.69;;;13.92;86.07
9672;BME280;4874;43.568;27.824;2023-02-17T12:37:52;99464.78;;;13.55;87.17
9672;BME280;4874;43.568;27.824;2023-02-17T12:42:57;99553.75;;;13.54;88.72
9672;BME280;4874;43.568;27.824;2023-02-17T12:45:36;99546.50;;;13.74;89.14
9672;BME280;4874;43.568;27.824;2023-02-17T12:48:21;99547.00;;;13.60;89.29
9672;BME280;4874;43.568;27.824;2023-02-17T12:51:09;99559.94;;;13.55;89.09
9672;BME280;4874;43.568;27.824;2023-02-17T12:59:14;99544.28;;;13.87;87.13
9672;BME280;4874;43.568;27.824;2023-02-17T13:01:57;99547.66;;;13.44;88.50
9672;BME280;4874;43.568;27.824;2023-02-17T13:04:27;99557.03;;;13.21;92.30
9672;BME280;4874;43.568;27.824;2023-02-17T13:07:14;99545.28;;;13.41;92.53
9672;BME280;4874;43.568;27.824;2023-02-17T13:09:47;99554.34;;;13.75;91.62
9672;BME280;4874;43.568;27.824;2023-02-17T13:14:52;99528.50;;;13.31;91.88
9672;BME280;4874;43.568;27.824;2023-02-17T13:22:32;99546.69;;;13.63;89.36
9672;BME280;4874;43.568;27.824;2023-02-17T13:24:59;99544.28;;;13.69;88.12
9672;BME280;4874;43.568;27.824;2023-02-17T13:32:33;99545.97;;;13.70;87.40
9672;BME280;4874;43.568;27.824;2023-02-17T13:37:51;99554.56;;;13.64;88.07
9672;BME280;4874;43.568;27.824;2023-02-17T13:42:45;99553.69;;;13.46;88.68
9672;BME280;4874;43.568;27.824;2023-02-17T13:47:42;99556.03;;;13.49;88.34
9672;BME280;4874;43.568;27.824;2023-02-17T13:52:57;99539.31;;;13.57;88.55
9672;BME280;4874;43.568;27.824;2023-02-17T13:55:24;99544.69;;;13.47;89.49
9672;BME280;4874;43.568;27.824;2023-02-17T13:57:56;99550.38;;;13.35;89.01
9672;BME280;4874;43.568;27.824;2023-02-17T14:00:24;99545.69;;;13.46;88.99
9672;BME280;4874;43.568;27.824;2023-02-17T14:07:52;99546.53;;;13.10;89.85
9672;BME280;4874;43.568;27.824;2023-02-17T14:10:23;99547.00;;;12.86;90.20
9672;BME280;4874;43.568;27.824;2023-02-17T14:12:52;99546.28;;;13.04;89.68
9672;BME280;4874;43.568;27.824;2023-02-17T14:15:23;99545.81;;;13.18;89.09
9672;BME280;4874;43.568;27.824;2023-02-17T14:17:50;99548.09;;;13.13;89.17
9672;BME280;4874;43.568;27.824;2023-02-17T14:23:14;99539.59;;;13.27;88.55
9672;BME280;4874;43.568;27.824;2023-02-17T14:25:43;99547.19;;;13.22;88.83
9672;BME280;4874;43.568;27.824;2023-02-17T14:28:25;99533.53;;;13.34;87.68
9672;BME280;4874;43.568;27.824;2023-02-17T14:30:52;99513.16;;;13.06;87.23
9672;BME280;4874;43.568;27.824;2023-02-17T14:33:22;99520.28;;;13.15;88.63
9672;BME280;4874;43.568;27.824;2023-02-17T14:35:55;99508.56;;;12.89;88.96
9672;BME280;4874;43.568;27.824;2023-02-17T14:40:54;99499.34;;;12.83;88.78
9672;BME280;4874;43.568;27.824;2023-02-17T14:43:21;99521.53;;;13.21;88.41
9672;BME280;4874;43.568;27.824;2023-02-17T14:45:48;99527.69;;;13.21;87.27
9672;BME280;4874;43.568;27.824;2023-02-17T14:48:16;99538.00;;;12.97;88.18
9672;BME280;4874;43.568;27.824;2023-02-17T14:50:43;99519.06;;;13.00;88.70
9672;BME280;4874;43.568;27.824;2023-02-17T14:55:41;99530.69;;;13.09;88.47
9672;BME280;4874;43.568;27.824;2023-02-17T14:58:20;99531.63;;;13.17;88.39
9672;BME280;4874;43.568;27.824;2023-02-17T15:00:48;99528.41;;;13.23;88.04
9672;BME280;4874;43.568;27.824;2023-02-17T15:03:15;99513.63;;;12.82;89.01
9672;BME280;4874;43.568;27.824;2023-02-17T15:05:42;99533.09;;;13.02;88.74
9672;BME280;4874;43.568;27.824;2023-02-17T15:08:17;99533.09;;;12.92;88.20
9672;BME280;4874;43.568;27.824;2023-02-17T15:10:45;99539.25;;;13.12;88.63
9672;BME280;4874;43.568;27.824;2023-02-17T15:13:15;99534.94;;;13.02;90.49
9672;BME280;4874;43.568;27.824;2023-02-17T15:15:42;99510.72;;;12.76;89.62
9672;BME280;4874;43.568;27.824;2023-02-17T15:18:15;99547.72;;;12.88;90.39
9672;BME280;4874;43.568;27.824;2023-02-17T15:20:44;99553.06;;;12.79;91.47
9672;BME280;4874;43.568;27.824;2023-02-17T15:23:14;99538.31;;;12.84;91.58
9672;BME280;4874;43.568;27.824;2023-02-17T15:25:42;99540.63;;;12.60;92.54
9672;BME280;4874;43.568;27.824;2023-02-17T15:28:14;99543.88;;;12.54;93.52
9672;BME280;4874;43.568;27.824;2023-02-17T15:30:43;99533.34;;;12.43;93.91
9672;BME280;4874;43.568;27.824;2023-02-17T15:33:12;99545.72;;;12.25;94.56
9672;BME280;4874;43.568;27.824;2023-02-17T15:35:39;99566.72;;;12.28;94.99
9672;BME280;4874;43.568;27.824;2023-02-17T15:38:10;99567.28;;;12.32;95.04
9672;BME280;4874;43.568;27.824;2023-02-17T15:40:37;99562.38;;;12.18;94.92
9672;BME280;4874;43.568;27.824;2023-02-17T15:43:05;99559.28;;;12.13;95.30
9672;BME280;4874;43.568;27.824;2023-02-17T15:45:32;99555.94;;;12.20;95.64